createdAt,value
2023-01-12T00:02:17.179Z,94.30
2023-01-12T00:07:20.618Z,93.50
2023-01-12T00:12:23.043Z,94.20
2023-01-12T00:17:25.025Z,94.60
2023-01-12T00:22:27.279Z,94.60
2023-01-12T00:27:29.258Z,94.70
2023-01-12T00:32:31.330Z,95.00
2023-01-12T00:37:34.949Z,95.80
2023-01-12T00:42:55.525Z,95.50
2023-01-12T00:47:57.697Z,95.40
2023-01-12T00:52:59.712Z,94.90
2023-01-12T00:58:01.787Z,95.00
2023-01-12T01:03:03.936Z,94.80
2023-01-12T01:08:06.526Z,94.90
2023-01-12T01:13:08.553Z,94.90
2023-01-12T01:18:10.586Z,94.80
2023-01-12T01:23:12.621Z,94.80
2023-01-12T01:28:16.640Z,94.90
2023-01-12T01:33:18.670Z,94.80
2023-01-12T01:38:20.896Z,94.70
2023-01-12T01:43:26.640Z,94.10
2023-01-12T01:48:33.566Z,94.10
2023-01-12T01:53:39.812Z,94.20
2023-01-12T01:58:54.124Z,94.10
2023-01-12T02:03:57.610Z,93.90
2023-01-12T02:09:15.712Z,93.70
2023-01-12T02:14:36.358Z,93.80
2023-01-12T02:20:14.021Z,93.40
2023-01-12T02:25:22.159Z,93.60
2023-01-12T02:31:05.477Z,93.50
2023-01-12T02:36:33.003Z,93.60
2023-01-12T02:42:04.479Z,93.80
2023-01-12T02:47:17.983Z,94.00
2023-01-12T02:52:26.687Z,93.70
2023-01-12T02:57:31.577Z,94.00
2023-01-12T03:02:34.347Z,94.10
2023-01-12T03:07:39.338Z,94.30
2023-01-12T03:12:45.046Z,94.40
2023-01-12T03:18:15.594Z,94.50
2023-01-12T03:23:37.240Z,94.60
2023-01-12T03:28:45.700Z,94.40
2023-01-12T03:33:48.013Z,94.20
2023-01-12T03:39:07.241Z,94.90
2023-01-12T03:44:21.439Z,95.60
2023-01-12T03:50:17.959Z,94.20
2023-01-12T03:55:24.225Z,94.10
2023-01-12T04:00:29.276Z,94.30
2023-01-12T04:05:31.251Z,94.70
2023-01-12T04:10:33.338Z,94.70
2023-01-12T04:15:38.122Z,94.20
2023-01-12T04:20:40.598Z,94.30
2023-01-12T04:25:42.625Z,93.90
2023-01-12T04:30:44.676Z,93.60
2023-01-12T04:35:47.725Z,93.60
2023-01-12T04:40:55.281Z,93.90
2023-01-12T04:45:59.093Z,93.90
2023-01-12T04:51:01.537Z,93.90
2023-01-12T04:56:08.437Z,94.00
2023-01-12T05:01:17.576Z,94.00
2023-01-12T05:06:19.742Z,94.00
2023-01-12T05:11:29.555Z,94.30
2023-01-12T05:16:31.732Z,93.70
2023-01-12T05:21:34.013Z,93.90
2023-01-12T05:26:36.027Z,94.00
2023-01-12T05:31:38.266Z,93.70
2023-01-12T05:36:40.299Z,93.20
2023-01-12T05:42:02.303Z,93.10
2023-01-12T05:47:04.426Z,92.90
2023-01-12T05:52:06.569Z,93.00
2023-01-12T05:57:08.743Z,92.60
2023-01-12T06:02:13.903Z,92.90
2023-01-12T06:07:16.860Z,92.70
2023-01-12T06:12:37.481Z,92.60
2023-01-12T06:17:39.599Z,93.00
2023-01-12T06:22:41.655Z,93.00
2023-01-12T06:27:43.680Z,93.10
2023-01-12T06:32:45.689Z,93.20
2023-01-12T06:37:47.670Z,93.40
2023-01-12T06:42:50.500Z,93.10
2023-01-12T06:47:52.823Z,93.50
2023-01-12T06:52:55.839Z,93.80
2023-01-12T06:58:01.693Z,93.60
2023-01-12T07:03:03.955Z,93.80
2023-01-12T07:08:05.947Z,93.40
2023-01-12T07:13:08.146Z,93.70
2023-01-12T07:18:10.464Z,93.70
2023-01-12T07:23:13.946Z,93.60
2023-01-12T07:28:16.282Z,93.50
2023-01-12T07:33:18.809Z,93.50
2023-01-12T07:38:21.195Z,92.70
2023-01-12T07:43:23.711Z,91.90
2023-01-12T07:48:27.554Z,91.80
2023-01-12T07:53:29.885Z,91.60
2023-01-12T07:58:31.970Z,91.50
2023-01-12T08:03:34.015Z,91.30
2023-01-12T08:08:36.414Z,91.30
2023-01-12T08:13:40.761Z,91.00
2023-01-12T08:19:01.610Z,91.10
2023-01-12T08:24:06.399Z,90.70
2023-01-12T08:29:13.841Z,91.00
2023-01-12T08:34:16.022Z,91.40
2023-01-12T08:39:18.288Z,91.30
2023-01-12T08:44:21.439Z,91.40
2023-01-12T08:49:28.233Z,91.60
2023-01-12T08:54:30.309Z,91.30
2023-01-12T08:59:32.439Z,91.40
2023-01-12T09:04:34.612Z,91.30
2023-01-12T09:09:37.081Z,91.00
2023-01-12T09:14:39.368Z,91.30
2023-01-12T09:19:44.157Z,91.20
2023-01-12T09:24:46.211Z,91.50
2023-01-12T09:29:48.324Z,91.40
2023-01-12T09:34:50.449Z,91.40
2023-01-12T09:39:52.906Z,91.50
2023-01-12T09:45:13.815Z,91.60
2023-01-12T09:50:24.028Z,91.80
2023-01-12T09:55:34.618Z,91.60
2023-01-12T10:00:36.709Z,91.70
2023-01-12T10:05:58.133Z,91.40
2023-01-12T10:11:38.883Z,91.40
2023-01-12T10:17:25.583Z,91.20
2023-01-12T10:22:42.291Z,90.50
2023-01-12T10:27:48.130Z,90.60
2023-01-12T10:32:50.222Z,90.60
2023-01-12T10:37:56.281Z,90.50
2023-01-12T10:43:24.088Z,90.20
2023-01-12T10:48:26.905Z,89.50
2023-01-12T10:53:44.047Z,88.10
2023-01-12T10:59:02.574Z,87.70
2023-01-12T11:04:06.149Z,88.70
2023-01-12T11:09:27.104Z,88.10
2023-01-12T11:14:39.517Z,88.60
2023-01-12T11:19:45.850Z,88.20
2023-01-12T11:24:57.780Z,88.60
2023-01-12T11:30:18.591Z,88.10
2023-01-12T11:35:39.341Z,87.70
2023-01-12T11:40:44.252Z,87.70
2023-01-12T11:45:54.990Z,87.70
2023-01-12T11:51:00.556Z,87.90
2023-01-12T11:56:42.571Z,88.00
2023-01-12T12:02:00.910Z,86.60
2023-01-12T12:07:36.941Z,87.40
2023-01-12T12:13:00.683Z,86.90
2023-01-12T12:18:49.812Z,87.30
2023-01-12T12:24:10.915Z,87.40
2023-01-12T12:29:29.535Z,88.10
2023-01-12T12:34:34.509Z,87.40
2023-01-12T12:39:49.753Z,87.30
2023-01-12T12:45:16.825Z,87.80
2023-01-12T12:51:08.905Z,87.00
2023-01-12T12:56:15.804Z,87.50
2023-01-12T13:01:23.853Z,87.60
2023-01-12T13:06:35.197Z,88.80
2023-01-12T13:12:00.578Z,88.50
2023-01-12T13:17:19.443Z,88.90
2023-01-12T13:22:44.591Z,90.10
2023-01-12T13:27:56.815Z,90.00
2023-01-12T13:33:27.612Z,90.40
2023-01-12T13:38:38.637Z,90.90
2023-01-12T13:43:58.289Z,90.90
2023-01-12T13:49:02.436Z,90.60
2023-01-12T13:54:11.469Z,91.00
2023-01-12T13:59:18.658Z,91.20
2023-01-12T14:04:56.997Z,91.20
2023-01-12T14:10:23.157Z,91.30
2023-01-12T14:15:53.374Z,90.90
2023-01-12T14:20:58.143Z,90.80
2023-01-12T14:26:06.033Z,91.40
2023-01-12T14:31:19.407Z,91.60
2023-01-12T14:36:45.324Z,91.80
2023-01-12T14:42:09.827Z,91.90
2023-01-12T14:47:26.311Z,91.50
2023-01-12T14:52:33.541Z,91.80
2023-01-12T14:57:36.403Z,91.80
2023-01-12T15:02:41.482Z,91.90
2023-01-12T15:08:22.213Z,92.00
2023-01-12T15:13:33.669Z,92.00
2023-01-12T15:18:54.435Z,92.00
2023-01-12T15:24:16.491Z,91.90
2023-01-12T15:29:18.655Z,92.00
2023-01-12T15:34:20.758Z,91.90
2023-01-12T15:39:23.217Z,92.00
2023-01-12T15:44:25.972Z,92.20
2023-01-12T15:49:30.907Z,92.10
2023-01-12T15:54:33.003Z,92.20
2023-01-12T15:59:35.115Z,92.80
2023-01-12T16:04:43.524Z,92.60
2023-01-12T16:09:47.879Z,92.80
2023-01-12T16:14:50.199Z,92.70
2023-01-12T16:19:53.013Z,92.70
2023-01-12T16:24:57.910Z,93.10
2023-01-12T16:30:00.104Z,92.80
2023-01-12T16:35:02.219Z,93.20
2023-01-12T16:40:04.902Z,93.40
2023-01-12T16:45:07.708Z,92.90
2023-01-12T16:50:10.048Z,93.20
2023-01-12T16:55:12.101Z,93.10
2023-01-12T17:00:15.699Z,93.10
2023-01-12T17:05:17.857Z,93.10
2023-01-12T17:10:20.083Z,92.70
2023-01-12T17:15:22.668Z,92.60
2023-01-12T17:20:24.975Z,92.60
2023-01-12T17:25:27.587Z,92.50
2023-01-12T17:30:29.616Z,92.80
2023-01-12T17:35:35.196Z,92.80
2023-01-12T17:40:40.208Z,92.60
2023-01-12T17:45:43.657Z,92.30
2023-01-12T17:50:47.291Z,92.00
2023-01-12T17:55:50.968Z,92.00
2023-01-12T18:00:54.135Z,91.70
2023-01-12T18:06:04.579Z,91.30
2023-01-12T18:11:09.612Z,91.30
2023-01-12T18:16:14.618Z,91.00
2023-01-12T18:21:21.487Z,90.70
2023-01-12T18:26:31.011Z,90.30
2023-01-12T18:31:38.050Z,90.50
2023-01-12T18:36:41.561Z,90.50
2023-01-12T18:42:02.825Z,90.70
2023-01-12T18:47:23.897Z,90.40
2023-01-12T18:52:44.989Z,90.40
2023-01-12T18:57:47.009Z,90.00
2023-01-12T19:02:49.168Z,88.90
2023-01-12T19:07:57.260Z,87.20
2023-01-12T19:13:19.613Z,88.10
2023-01-12T19:18:21.888Z,88.70
2023-01-12T19:23:42.584Z,87.50
2023-01-12T19:28:44.786Z,87.40
2023-01-12T19:33:46.851Z,86.40
2023-01-12T19:38:51.305Z,87.40
2023-01-12T19:43:53.684Z,86.60
2023-01-12T19:48:55.935Z,86.70
2023-01-12T19:53:57.941Z,86.80
2023-01-12T19:59:00.112Z,87.40
2023-01-12T20:04:02.647Z,87.20
2023-01-12T20:09:04.833Z,87.40
2023-01-12T20:14:07.306Z,87.20
2023-01-12T20:19:09.372Z,86.20
2023-01-12T20:24:11.622Z,87.10
2023-01-12T20:29:14.069Z,85.30
2023-01-12T20:34:16.254Z,86.40
2023-01-12T20:39:18.321Z,86.50
2023-01-12T20:44:20.817Z,86.70
2023-01-12T20:49:23.630Z,87.40
2023-01-12T20:54:26.007Z,87.50
2023-01-12T20:59:28.405Z,87.70
2023-01-12T21:04:31.334Z,87.40
2023-01-12T21:09:33.415Z,87.10
2023-01-12T21:14:36.123Z,86.70
2023-01-12T21:19:38.313Z,86.70
2023-01-12T21:24:40.395Z,85.20
2023-01-12T21:29:42.631Z,86.30
2023-01-12T21:34:44.841Z,87.00
2023-01-12T21:39:46.840Z,86.60
2023-01-12T21:44:49.132Z,87.40
2023-01-12T21:49:51.370Z,87.50
2023-01-12T21:54:53.733Z,87.60
2023-01-12T21:59:55.972Z,88.10
2023-01-12T22:04:58.017Z,87.90
2023-01-12T22:10:19.088Z,88.50
2023-01-12T22:15:23.179Z,88.30
2023-01-12T22:20:27.911Z,88.00
2023-01-12T22:25:30.006Z,88.20
2023-01-12T22:30:32.040Z,88.20
2023-01-12T22:35:34.232Z,87.50
2023-01-12T22:40:36.409Z,87.80
2023-01-12T22:45:38.963Z,87.30
2023-01-12T22:50:41.151Z,86.70
2023-01-12T22:55:43.264Z,87.20
2023-01-12T23:00:45.715Z,87.40
2023-01-12T23:05:56.086Z,87.50
2023-01-12T23:11:18.670Z,86.90
2023-01-12T23:16:21.200Z,87.10
2023-01-12T23:21:28.875Z,87.70
2023-01-12T23:26:32.921Z,87.40
2023-01-12T23:31:35.172Z,88.10
2023-01-12T23:36:37.649Z,88.60
2023-01-12T23:41:40.023Z,89.20
2023-01-12T23:46:43.198Z,89.40
2023-01-12T23:51:45.204Z,88.80
2023-01-12T23:56:54.787Z,88.50
